Marc Gil

Chief Scout - Valencia
26 Dec 2027
Sunday
Process

Personality

Adaptability (15) Ambition (7) Controversy (6) Loyalty (19) Pressure (14) Professionalism (14) Sportsmanship (8) Temperament (11)

Profile

Coaching Style Democratic
License Continental Pro
Determination 10
Man Management 9
Motivating 14
Discipline 13
Job Satisfaction
100%
Fatigue
0%
Role Chief Scout
Wage 75.7K p/w
Contract 14.03.2029

Performance

Behaviour Good
Training Effectiveness
58%
Player Development
70%
Injury Prevention
70%
Tactical Implementation
75%

Currently Monitoring

190
Player Club Status Ability Confidence Watched Last Observed Latest Vote
Jesus Ferreira Seattle Sounders Active 121 / 136 40% 3 31.08.2027 -
Juan Ramírez Palmeiras Active 138 / 142 40% 1 31.08.2027 -
Daniel Barrea Godoy Cruz Active 125 / 123 40% 1 31.08.2027 -
Ignacio Russo Tigre Active 115 / 125 40% 1 30.08.2027 -
Clemente Montes Universidad de Chile Active 112 / 122 40% 1 30.08.2027 -
Exequiel Zeballos Boca Juniors Active 146 / 131 40% 6 29.08.2027 -
Lois Mignolet Racing Genk Active 151 / 145 40% 2 29.08.2027 -
Max Weiß Norwich City Active 139 / 140 40% 2 29.08.2027 -
Viktor Baier Viktoria Plzen Active 125 / 119 40% 1 29.08.2027 -
Bruno Larregui Juventud Active 114 / 113 40% 1 29.08.2027 -
Yota Komi Kashiwa Reysol Active 121 / 116 40% 1 29.08.2027 -
Efraín Álvarez Flamengo Active 134 / 132 40% 1 28.08.2027 -
Wilmar Borja La Equidad Active 114 / 112 40% 1 28.08.2027 -
Guillaume Restes Toulouse FC Active 137 / 149 40% 3 26.08.2027 -
Lorenzo Palmisani Hellas Verona Active 135 / 144 40% 2 26.08.2027 -
Pascal Loretz Luzern Active 138 / 137 40% 2 24.08.2027 -
Dani Martín Levante Active 121 / 129 40% 1 24.08.2027 -
Kostantis Tzolakis Hull City Active 144 / 148 40% 1 24.08.2027 -
Agustín Alaniz Juventud Active 105 / 112 40% 1 24.08.2027 -
Alexander Díaz Deportivo Riestra Active 128 / 115 40% 2 23.08.2027 -
Kévin Denkey FC Cincinnati Active 124 / 127 40% 1 23.08.2027 -
Bénie Traoré New York City Active 121 / 128 40% 1 23.08.2027 -
Theo Corbeanu Toronto FC Active 140 / 120 40% 1 21.08.2027 -
Shu Morooka Avispa Fukuoka Active 115 / 124 40% 1 21.08.2027 -
Mohanad Ali Dibba Active 115 / 126 40% 1 21.08.2027 -
Alexis Cuello San Lorenzo Active 115 / 125 40% 2 20.08.2027 -
Renato Júnior Al Wasl Active 126 / 122 40% 1 20.08.2027 -
Konan N'Dri Lecce Active 139 / 129 40% 1 20.08.2027 -
Lorenzo Colombo Genoa Active 135 / 139 40% 3 19.08.2027 -
Nico Paz Como Active 159 / 167 40% 1 19.08.2027 -
Santiago Castro AS Roma Active 151 / 156 40% 1 18.08.2027 -
Dušan Vlahović Juventus Active 161 / 166 40% 1 18.08.2027 -
Luca Martínez Dupuy Godoy Cruz Active 120 / 118 40% 1 17.08.2027 -
Esteban Obregón Montevideo City Torque Active 117 / 121 40% 1 17.08.2027 -
Jonathan Dubasin Osasuna Active 143 / 149 40% 1 16.08.2027 -
Peque Sevilla Active 141 / 146 40% 1 16.08.2027 -
Ez Abde Betis Active 160 / 153 40% 1 16.08.2027 -
Plamen Andreev Debrecen Active 122 / 122 40% 1 16.08.2027 -
Lucas Lavagnino Valladolid Active 132 / 127 40% 1 16.08.2027 -
Amin Sarr Hellas Verona Active 137 / 134 40% 5 14.08.2027 -
Indiana Vassilev Philadelphia Union Active 123 / 122 40% 1 14.08.2027 -
Emi Ochoa SC Freiburg Active 123 / 126 40% 4 13.08.2027 -
Alejo Veliz Bahia Active 145 / 136 40% 1 13.08.2027 -
Kein Sato FC Tokyo Active 142 / 133 40% 1 13.08.2027 -
Diego García Malmo FF Active 128 / 126 40% 1 13.08.2027 -
Willem Geubbels Lecce Active 126 / 132 40% 3 12.08.2027 -
Germán Valera Elche Active 134 / 141 40% 1 12.08.2027 -
Husain Norchayev Navbahor Active 109 / 123 40% 1 12.08.2027 -
Aarón Martín Al-Qadisiyah Active 103 / 115 40% 2 11.08.2027 -
Sergiu Perciun Torino Active 103 / 113 40% 1 11.08.2027 -
Mads Bomholt Rosenborg Active 104 / 116 40% 1 11.08.2027 -
Jefry Zapata Once Caldas Active 108 / 118 40% 2 09.08.2027 -
Luciano Cosentino Vegalta Sendai Active 114 / 114 40% 3 09.08.2027 -
David Romero Parma Active 129 / 128 40% 2 09.08.2027 -
Miles Leaburn Charlton Athletic Active 116 / 123 40% 5 08.08.2027 -
Filip Stojilković Pisa Active 128 / 127 40% 2 07.08.2027 -
Fer Niño Elche Active 127 / 133 40% 6 07.08.2027 -
Pierce Charles Manchester City Active 130 / 134 40% 2 07.08.2027 -
Aitor Fraga Real Sociedad Active 142 / 133 40% 3 07.08.2027 -
Oh Hyeon-Gyu Besiktas Active 122 / 131 40% 3 06.08.2027 -
Bertuğ Yıldırım Basaksehir Active 124 / 126 40% 3 06.08.2027 -
Tommy Setford Arsenal Active 115 / 122 40% 2 05.08.2027 -
Robin Risser RC Lens Active 142 / 150 40% 2 04.08.2027 -
André Gomes Casa Pia Active 128 / 139 40% 1 02.08.2027 -
Oleksandr Saputin Zorya Active 112 / 131 40% 1 02.08.2027 -
Axel Tape Bayer Leverkusen Active 128 / 139 40% 5 01.08.2027 -
Kjell Peersman KAA Gent Active 120 / 132 40% 3 01.08.2027 -
Thiago Helguera Braga Active 131 / 131 40% 1 01.08.2027 -
Jackson Muleka Konyaspor Active 147 / 128 40% 4 29.07.2027 -
Nikita Kokarev Krylya Sovetov Active 136 / 116 40% 1 29.07.2027 -
Jalen Blesa Rio Ave Active 118 / 122 40% 2 28.07.2027 -
Aune Heggebø West Bromwich Albion Active 129 / 134 40% 3 28.07.2027 -
Yaghoub Barage Persepolis Active 100 / 114 40% 2 28.07.2027 -
Jarvis Thornton Sheffield Wednesday Active 107 / 112 40% 1 28.07.2027 -
Figueiredo Alverca Active 133 / 132 40% 3 22.07.2027 -
Kaick FC Dallas Active 109 / 107 40% 4 21.07.2027 -
Morgan Dala New York Red Bulls Active 108 / 124 40% 1 21.07.2027 -
Bautista Rámirez Vélez Active 110 / 102 40% 2 19.07.2027 -
Martim Cunha Porto Active 110 / 108 40% 2 18.07.2027 -
Amir Mohammad Razzaghinia Esteghlal Active 113 / 112 40% 2 18.07.2027 -
Augusto Bando Ascoli Active 104 / 118 40% 1 18.07.2027 -
Juanmi Latasa Valladolid Active 131 / 122 40% 3 16.07.2027 -
Tyreece Campbell Charlton Athletic Active 113 / 128 40% 2 15.07.2027 -
Zakaria Aboukhlal Torino Active 130 / 136 40% 1 15.07.2027 -
Teddy Sharman-Lowe Chelsea Active 118 / 124 40% 2 14.07.2027 -
Daniil Khudyakov Sturm Graz Active 122 / 125 40% 2 14.07.2027 -
Matyáš Kozák Teplice Active 123 / 122 40% 2 12.07.2027 -
Eguinaldo Shakhtar Active 141 / 135 40% 1 12.07.2027 -
Mohamed Bamba FC Lorient Active 137 / 122 40% 3 11.07.2027 -
Vincent Burlet Cracovia Lost 113 / 114 40% 1 11.07.2027 -
Souza Tottenham Active 124 / 130 40% 2 08.07.2027 -
Vincent Burlet Cracovia Lost 114 / 111 40% 2 08.07.2027 -
Ottó Hindrich Legia Active 137 / 126 40% 1 06.07.2027 -
Marcelo Fernández Libertad Active 115 / 122 40% 3 04.07.2027 -
Marezi Portsmouth Active 127 / 130 40% 1 04.07.2027 -
Ousmane Camara Castellón Active 126 / 120 40% 3 01.07.2027 -
Franculino FC Midtjylland Active 149 / 144 40% 1 01.07.2027 -
Rocco Vata Watford Active 118 / 130 40% 2 29.06.2027 -
Abel Ruiz Girona Active 149 / 144 40% 1 29.06.2027 -
Roger Brugué Levante Active 122 / 131 65% 1 28.06.2027 Approve
Álex Forés Burgos Active 138 / 129 40% 1 28.06.2027 -
Sorriso Famalicao Active 142 / 131 40% 1 28.06.2027 -
Ivan Pakholiuk Kolos Lost 116 / 124 40% 1 25.06.2027 -
Chupete Málaga Active 142 / 138 40% 1 25.06.2027 -
Mathias Kvistgaarden Norwich City Active 120 / 121 40% 1 25.06.2027 -
Abu Kamara Portsmouth Active 111 / 120 40% 2 24.06.2027 -
Sam Greenwood Bristol City Active 129 / 125 40% 1 24.06.2027 -
Tamble Monteiro Rio Ave Active 120 / 118 40% 2 23.06.2027 -
Pablo Aguiar Gimnasia La Plata Lost 111 / 104 40% 1 23.06.2027 -
Sabil Hansen Randers Active 99 / 108 40% 1 23.06.2027 -
Brandon Powell Blackburn Rovers Active 111 / 117 40% 2 19.06.2027 -
Ernest Muçi Trabzonspor Active 140 / 138 40% 1 19.06.2027 -
Dayann Methalie Sunderland Active 140 / 134 40% 1 18.06.2027 -
Freddie Simmonds Brighton Active 97 / 119 40% 1 18.06.2027 -
Malick Yalcouyé Brighton Active 118 / 132 40% 1 18.06.2027 -
Rubén García Osasuna Lost 132 / 136 65% 1 14.06.2027 Approve
Moctar Diop KAA Gent Active 112 / 119 40% 1 14.06.2027 -
Chris Rigg Sunderland Active 124 / 135 40% 1 14.06.2027 -
García Pascual Cádiz Active 120 / 122 40% 2 12.06.2027 -
Mikhail Ryadno Baltika Active 113 / 99 40% 1 12.06.2027 -
Bruno Barticciotto Olympique Lyonnais Active 129 / 128 40% 1 10.06.2027 -
Josh Coburn Millwall Active 117 / 118 40% 2 09.06.2027 -
Ozziel Herrera Tigres Active 143 / 130 40% 2 08.06.2027 -
Richard Koné Queens Park Rangers Active 122 / 122 40% 1 05.06.2027 -
Martin Kern Puskas Akademia Active 95 / 107 40% 1 04.06.2027 -
Ante Budimir Osasuna Lost 142 / 150 65% 1 02.06.2027 -
Diego Valdés Getafe Lost 123 / 130 65% 1 01.06.2027 -
Adrián Niño Málaga Active 121 / 128 40% 1 01.06.2027 -
Ibrahima Koné Almería Active 129 / 116 40% 1 01.06.2027 -
Rafiu Durosinmi Racing Genk Active 124 / 129 40% 2 31.01.2027 -
Brian Rodríguez Club America Active 124 / 125 40% 3 31.01.2027 -
Benjamín Rollheiser Santos Active 125 / 131 40% 2 31.01.2027 -
Tobias Bech AGF Active 133 / 125 40% 1 31.01.2027 -
Dylan Gorosito Boca Juniors Active 105 / 124 40% 1 28.01.2027 -
Iván Martín Racing Club Active 157 / 150 40% 3 26.01.2027 -
Marcos Antonio Sport Recife Active 141 / 146 40% 6 26.01.2027 -
Aral Şimşir Trabzonspor Active 124 / 135 40% 1 26.01.2027 -
Ansu Fati Monaco Active 146 / 138 40% 2 25.01.2027 -
Louis Mouton Angers SCO Active 124 / 132 40% 1 25.01.2027 -
Nuno Moreira Vasco da Gama Active 124 / 134 40% 4 22.01.2027 -
Martinelli Fluminense Active 140 / 147 40% 4 22.01.2027 -
Christian Krasnodar Active 146 / 135 40% 2 21.01.2027 -
Lorenzo Amatucci Deportivo La Coruña Active 124 / 131 40% 2 19.01.2027 -
Luciano Juba Bahia Active 139 / 136 40% 1 19.01.2027 -
Tetê Grêmio Active 139 / 125 40% 1 19.01.2027 -
Eden De Bruyne KV Oostende Active 142 / 129 40% 3 18.01.2027 -
Anaitz Arbilla Active 114 / 114 65% 1 18.01.2027 Approve
Thierry Rendall Correia Venezia Active 139 / 141 40% 1 18.01.2027 -
Yacine Adli Al-Shabab Active 135 / 142 40% 2 17.01.2027 -
Alexandro Bernabei Internacional Active 138 / 139 40% 1 17.01.2027 -
Christos Zafeiris PAOK Active 140 / 146 40% 1 16.01.2027 -
Tobías Quiroz Lanús Active 98 / 110 40% 1 15.01.2027 -
Sean Fusire Sheffield Wednesday Active 105 / 108 40% 1 15.01.2027 -
Breno Bidon Corinthians Active 142 / 134 40% 1 15.01.2027 -
Festy Ebosele Basaksehir Active 126 / 134 40% 1 15.01.2027 -
Yanis Begraoui Estoril Praia Active 133 / 139 40% 1 15.01.2027 -
Moussa Diaby Al-Ittihad Active 137 / 141 40% 1 15.01.2027 -
Petter Nosa Dahl Rapid Wien Active 124 / 128 40% 1 13.01.2027 -
Amar Memić Viktoria Plzen Active 121 / 122 40% 1 13.01.2027 -
Kévin Danois AJ Auxerre Active 128 / 135 40% 1 11.01.2027 -
Thiago Almada River Plate Active 141 / 155 40% 2 08.01.2027 -
Santi García Gil Vicente Active 124 / 129 40% 2 08.01.2027 -
Facundo Pellistri Panathinaikos Active 125 / 135 40% 1 06.01.2027 -
Dylan Nandín Arouca Active 120 / 112 40% 1 05.01.2027 -
Rodrigo Huescas FC Copenhagen Active 143 / 132 40% 1 05.01.2027 -
Álvaro Barreal Santos Active 120 / 132 40% 1 02.01.2027 -
Andrés Martín Racing Santander Active 137 / 130 40% 2 30.08.2026 -
Heorhii Sudakov Benfica Active 141 / 144 40% 1 30.08.2026 -
José Paradela PSV Active 132 / 138 40% 1 29.08.2026 -
Kota Tawaratsumida FC Tokyo Active 124 / 130 40% 1 28.08.2026 -
Lamine Camara Monaco Active 142 / 140 40% 1 28.08.2026 -
Samuel Lino Flamengo Active 135 / 135 40% 2 27.08.2026 -
Maxim Glushenkov Zenit Active 148 / 136 40% 1 27.08.2026 -
Wilfried Gnonto Leeds United Active 140 / 142 40% 1 27.08.2026 -
Richard Ríos Benfica Active 145 / 137 40% 1 25.08.2026 -
Yuri Alberto Corinthians Active 126 / 143 40% 1 24.08.2026 -
Esequiel Barco Spartak Moscow Active 123 / 131 40% 1 24.08.2026 -
Facundo Torres Austin FC Active 140 / 131 40% 1 20.08.2026 -
Ibrahim Aliyu Aston Villa Active 120 / 114 40% 1 18.08.2026 -
Will Lankshear Middlesbrough Active 111 / 126 40% 1 18.08.2026 -
Vitinho Botafogo Active 127 / 126 40% 1 16.08.2026 -
Gaspar Gijón Active 132 / 135 40% 1 16.08.2026 -
Martín Ojeda Orlando City Active 136 / 130 40% 1 15.08.2026 -
Luis Sinisterra Cruzeiro Active 129 / 136 40% 1 14.08.2026 -
Fabrizio Sartori Independiente Rivadavia Active 112 / 126 40% 1 14.08.2026 -
Troy Parrott Betis Active 138 / 137 40% 1 14.08.2026 -
Nazareno Kihm Ferro Carril Oeste Active 107 / 109 40% 1 12.08.2026 -
Gonzalo Bordón Independiente Active 101 / 113 40% 1 12.08.2026 -
Juan Morán Godoy Cruz Active 104 / 117 40% 1 03.08.2026 -
Santiago Fernández Talleres Active 113 / 116 40% 1 03.08.2026 -